This is the latest recevied weather packets stored in our database for station/object KO4RJX-11. If no packets are shown the sender has not sent any weather packets the latest 10 day(s).
| Time | Temp. | Humidity | Pressure | Rain* | Wind** | Luminosity | Snow |
|---|---|---|---|---|---|---|---|
| 1777599725 | 16.67° C | 78% | 1006.2 hPa | 3.81 mm | - | - | - |
| 1777598392 | 16.67° C | 73% | 1005.9 hPa | 3.81 mm | - | - | - |
| 1777595992 | 17.22° C | 72% | 1005.2 hPa | 3.81 mm | - | - | - |
| 1777592392 | 18.89° C | 65% | 1004.5 hPa | 3.81 mm | - | - | - |
| 1777587723 | 21.67° C | 47% | 1004.2 hPa | 3.81 mm | - | - | - |
| 1777587192 | 21.67° C | 47% | 1003.9 hPa | 3.81 mm | - | - | - |
| 1777578392 | 21.11° C | 46% | 1004.5 hPa | 3.81 mm | - | - | - |
| 1777576792 | 21.11° C | 44% | 1004.2 hPa | 3.81 mm | - | - | - |
| 1777575192 | 20.56° C | 48% | 1004.2 hPa | 3.81 mm | - | - | - |
| 1777574923 | 20.56° C | 48% | 1004.2 hPa | 3.81 mm | - | - | - |
| 1777571592 | 19.44° C | 58% | 1004.2 hPa | 3.81 mm | - | - | - |
| 1777570393 | 19.44° C | 59% | 1004.5 hPa | 3.81 mm | - | - | - |
| 1777569992 | 18.89° C | 58% | 1004.9 hPa | 3.81 mm | - | - | - |
| 1777569592 | 18.89° C | 60% | 1004.9 hPa | 3.81 mm | - | - | - |
| 1777562793 | 17.78° C | 67% | 1005.2 hPa | 3.56 mm | - | - | - |
| 1777561192 | 17.22° C | 71% | 1005.6 hPa | 3.56 mm | - | - | - |
| 1777560392 | 17.22° C | 71% | 1005.9 hPa | 3.56 mm | - | - | - |
| 1777559992 | 17.22° C | 71% | 1005.9 hPa | 3.56 mm | - | - | - |
| 1777558524 | 16.67° C | 79% | 1004.5 hPa | 3.56 mm | - | - | - |
| 1777554792 | 15.56° C | 86% | 1004.2 hPa | 3.56 mm | - | - | - |
| 1777553993 | 15.56° C | 87% | 1004.5 hPa | 3.56 mm | - | - | - |
| 1777552792 | 15.56° C | 87% | 1004.5 hPa | 3.56 mm | - | - | - |
| 1777551592 | 15.56° C | 90% | 1004.5 hPa | 3.56 mm | - | - | - |
| 1777551325 | 15.56° C | 89% | 1004.5 hPa | 3.56 mm | - | - | - |
| 1777549723 | 15.56° C | 89% | 1004.5 hPa | 3.56 mm | - | - | - |
* Rain since midnight (hover to see other rain measurements)
** Current wind speed in m/s (hover to see current wind gust speed)